Latest Coastal Weather Observations for Hervey Bay

IDQ60701

Issued at 8:12 pm EST Tuesday 1 September 2015 (issued every 10 minutes, with the page automatically refreshed every 10 minutes)

About coastal observations | Map of coastal stations | Coastal observations for QLD | Marine services | Other Formats
Station Details ID: 040405 Name: HERVEY BAY AIRPORT Lat: -25.32 Lon: 152.88 Height: 12.98 m
Data from the previous 72 hours. | See also: Recent months at Hervey Bay
Date/Time
EST
Temp

°C
Wind Pressure Rain
since 9am
mm
Weather Cloud Vis
km
Sea
Height
m
Swell
Dir
 
Speed
knots
Gust
knots
hPa Trend Height
m
Period
s
Dir
01/08:00pm 18.1 NNW 8 11 1016.4 - 0.0 - - 10 - - - -
01/07:30pm 18.0 N 7 10 1016.0 - 0.0 - - 10 - - - -
01/07:00pm 18.1 NNW 7 10 1015.5 - 0.0 - - 10 - - - -
01/06:30pm 18.3 N 7 11 1015.4 - 0.0 - - 10 - - - -
01/06:00pm 18.4 N 7 10 1015.1 - 0.0 - - 10 - - - -
01/05:30pm 19.0 N 6 9 1014.7 - 0.0 - - 10 - - - -
01/05:00pm 20.0 N 9 13 1014.6 - 0.0 - - 10 - - - -
01/04:30pm 20.2 N 9 14 1014.5 - 0.0 - - 10 - - - -
01/04:00pm 21.1 N 9 14 1014.3 - 0.0 - - 10 - - - -
01/03:30pm 21.1 N 11 15 1014.1 - 0.0 - - 10 - - - -
01/03:00pm 21.5 N 11 16 1014.3 - 0.0 - - 10 - - - -
01/02:30pm 21.7 N 10 14 1014.5 - 0.0 - - 10 - - - -
01/02:00pm 21.6 NNE 11 16 1014.7 - 0.0 - - 10 - - - -
01/01:30pm 22.7 NNE 9 12 1015.0 - 0.0 - - 10 - - - -
01/01:00pm 22.3 NNE 9 15 1015.5 - 0.0 - - 10 - - - -
01/12:30pm 21.9 NNE 8 11 1015.9 - 0.0 - - 10 - - - -
01/12:00pm 22.1 NNE 6 13 1016.3 - 0.0 - - 10 - - - -
01/11:30am 22.4 ESE 5 8 1016.9 - 0.0 - - 10 - - - -
01/11:00am 21.5 SW 7 10 1017.5 - 0.0 - - 10 - - - -
01/10:30am 20.9 SW 7 10 1017.8 - 0.0 - - 10 - - - -
01/10:00am 20.0 SW 9 14 1018.1 - 0.0 - - 10 - - - -
01/09:30am 19.4 SW 9 14 1018.3 - 0.0 - - 10 - - - -
01/09:00am 18.5 SW 7 11 1018.4 - 0.0 - - 10 - - - -
01/08:30am 17.6 SW 7 10 1018.5 - 0.0 - - 10 - - - -
01/08:00am 15.9 SW 6 9 1018.1 - 0.0 - - 10 - - - -
01/07:30am 13.8 SW 3 5 1017.8 - 0.0 - - 10 - - - -
01/07:00am 11.5 SW 5 8 1017.5 - 0.0 - - 10 - - - -
01/06:30am 7.1 SW 4 6 1017.3 - 0.0 - - 10 - - - -
01/06:00am 6.2 SW 5 6 1016.8 - 0.0 - - 10 - - - -
01/05:30am 6.4 SW 5 6 1016.6 - 0.0 - - 10 - - - -
01/05:00am 7.5 SW 6 7 1016.2 - 0.0 - - 10 - - - -
01/04:30am 6.1 SW 6 7 1016.1 - 0.0 - - 10 - - - -
01/04:00am 6.0 SW 4 5 1016.1 - 0.0 - - 10 - - - -
01/03:30am 6.3 SW 4 4 1016.2 - 0.0 - - 10 - - - -
01/03:00am 6.7 WSW 4 4 1016.4 - 0.0 - - 10 - - - -
01/02:30am 7.3 SSW 4 5 1016.3 - 0.0 - - 10 - - - -
01/02:00am 8.2 SW 5 6 1016.6 - 0.0 - - 10 - - - -
01/01:30am 8.6 W 6 7 1016.6 - 0.0 - - 10 - - - -
01/01:00am 8.3 SW 5 6 1016.4 - 0.0 - - 10 - - - -
01/12:30am 9.4 SW 5 6 1016.3 - 0.0 - - 10 - - - -
01/12:00am 10.8 SW 5 7 1016.3 - 0.0 - - 10 - - - -
 
Date/Time
EST
Temp

°C
Wind Pressure Rain
since 9am
mm
Weather Cloud Vis
km
Sea
Height
m
Swell
Dir
 
Speed
knots
Gust
knots
hPa Trend Height
m
Period
s
Dir
31/11:30pm 9.3 SW 5 7 1016.5 - 0.0 - - 10 - - - -
31/11:00pm 9.4 SW 5 6 1016.5 - 0.0 - - 10 - - - -
31/10:30pm 8.7 WSW 6 7 1016.6 - 0.0 - - 10 - - - -
31/10:00pm 8.7 WSW 5 6 1016.5 - 0.0 - - 10 - - - -
31/09:30pm 8.7 CALM 0 0 1016.2 - 0.0 - - 10 - - - -
31/09:00pm 9.2 SW 3 4 1015.9 - 0.0 - - 10 - - - -
31/08:30pm 9.8 CALM 0 3 1015.5 - 0.0 - - 10 - - - -
31/08:00pm 10.5 SW 1 3 1015.2 - 0.0 - - 10 - - - -
31/07:30pm 11.0 SW 1 5 1015.0 - 0.0 - - 10 - - - -
31/07:00pm 11.7 SE 1 4 1014.6 - 0.0 - - 10 - - - -
31/06:30pm 13.1 CALM 0 0 1014.2 - 0.0 - - 10 - - - -
31/06:00pm 15.4 N 1 3 1014.0 - 0.0 - - 10 - - - -
31/05:30pm 18.8 N 3 5 1013.8 - 0.0 - - 10 - - - -
31/05:00pm 20.2 NNE 5 6 1013.6 - 0.0 - - 10 - - - -
31/04:30pm 21.0 NNE 5 7 1013.5 - 0.0 - - 10 - - - -
31/04:00pm 21.0 N 7 11 1013.5 - 0.0 - - 10 - - - -
31/03:30pm 20.9 N 11 15 1013.7 - 0.0 - - 10 - - - -
31/03:00pm 21.1 N 9 13 1013.9 - 0.0 - - 10 - - - -
31/02:30pm 21.6 N 8 11 1013.9 - 0.0 - - 10 - - - -
31/02:00pm 22.0 NNE 7 10 1013.9 - 0.0 - - 10 - - - -
31/01:30pm 20.9 NE 7 11 1014.2 - 0.0 - - 10 - - - -
31/01:00pm 21.3 E 9 13 1014.2 - 0.0 - Partly cloudy 10 - - - -
31/12:30pm 21.2 ESE 9 13 1014.5 - 0.0 - - 10 - - - -
31/12:00pm 21.2 E 9 11 1014.8 - 0.0 - - 10 - - - -
31/11:30am 21.1 WNW 4 6 1015.2 - 0.0 - - 10 - - - -
31/11:00am 20.7 SSW 6 10 1015.6 - 0.0 - - 10 - - - -
31/10:30am 19.9 SW 7 10 1016.0 - 0.0 - - 10 - - - -
31/10:00am 18.7 SSW 7 10 1016.3 - 0.0 - - 10 - - - -
31/09:30am 18.1 SSW 7 11 1016.7 - 0.0 - - 10 - - - -
31/09:00am 16.7 SW 9 13 1016.8 - 0.2 - - 10 - - - -
31/08:30am 15.2 SW 9 11 1016.8 - 0.2 - - 10 - - - -
31/08:00am 14.2 SW 9 13 1016.7 - 0.2 - - 10 - - - -
31/07:30am 13.0 WSW 8 12 1016.6 - 0.2 - - 10 - - - -
31/07:00am 11.6 WSW 8 11 1016.4 - 0.2 - - 10 - - - -
31/06:30am 10.2 WSW 7 10 1016.3 - 0.2 - - 10 - - - -
31/06:00am 9.6 WSW 8 11 1015.9 - 0.2 - - 10 - - - -
31/05:30am 8.5 WSW 7 9 1015.6 - 0.2 - - 10 - - - -
31/05:00am 6.7 WSW 6 7 1015.5 - 0.2 - - 10 - - - -
31/04:30am 6.9 SW 3 4 1015.5 - 0.2 - - 10 - - - -
31/04:00am 7.7 CALM 0 2 1015.5 - 0.2 - - 10 - - - -
31/03:30am 9.1 WSW 4 5 1015.5 - 0.2 - - 10 - - - -
31/03:00am 10.3 WSW 5 6 1015.9 - 0.2 - - 10 - - - -
31/02:30am 10.6 WSW 6 8 1016.2 - 0.2 - - 10 - - - -
31/02:00am 10.8 W 6 7 1016.6 - 0.2 - - 10 - - - -
31/01:30am 11.8 WSW 5 7 1016.8 - 0.2 - - 10 - - - -
31/01:00am 11.9 WSW 6 8 1017.0 - 0.2 - - 10 - - - -
31/12:30am 12.0 SW 5 6 1016.9 - 0.2 - - 10 - - - -
31/12:00am 12.8 SW 5 7 1017.0 - 0.2 - - 10 - - - -
 
Date/Time
EST
Temp

°C
Wind Pressure Rain
since 9am
mm
Weather Cloud Vis
km
Sea
Height
m
Swell
Dir
 
Speed
knots
Gust
knots
hPa Trend Height
m
Period
s
Dir
30/11:30pm 12.8 WSW 5 7 1017.0 - 0.2 - - 10 - - - -
30/11:00pm 12.2 SW 4 5 1017.1 - 0.2 - - 10 - - - -
30/10:30pm 14.1 SW 5 7 1017.0 - 0.2 - - 10 - - - -
30/10:00pm 14.2 SW 6 7 1016.9 - 0.2 - - 10 - - - -
30/09:30pm 13.8 SW 5 7 1016.8 - 0.2 - - 10 - - - -
30/09:00pm 14.6 SW 5 7 1016.6 - 0.2 - - 10 - - - -
30/08:30pm 14.5 SW 4 8 1016.4 - 0.2 - - 10 - - - -
30/08:00pm 13.7 SW 5 7 1016.2 - 0.2 - - 10 - - - -
30/07:30pm 14.7 WSW 4 6 1015.8 - 0.2 - - 10 - - - -
30/07:00pm 15.5 WSW 1 4 1015.4 - 0.2 - - 10 - - - -
30/06:30pm 16.7 WSW 2 4 1015.0 - 0.2 - Partly cloudy 10 - - - -
30/06:00pm 17.7 W 1 3 1014.6 - 0.2 - Partly cloudy 10 - - - -
30/05:30pm 19.2 N 3 5 1014.3 - 0.2 - Partly cloudy 10 - - - -
30/05:00pm 19.8 N 5 6 1013.9 - 0.2 - Partly cloudy 10 - - - -
30/04:30pm 20.3 N 3 5 1013.6 - 0.2 - Partly cloudy 10 - - - -
30/04:00pm 20.4 NE 7 10 1013.7 - 0.2 - Partly cloudy 10 - - - -
30/03:30pm 21.2 N 5 9 1013.8 - 0.2 - Partly cloudy 10 - - - -
30/03:00pm 22.5 NW 6 10 1013.9 - 0.2 Recent precip. Cloudy 10 - - - -
30/02:30pm 23.8 W 8 13 1014.2 - 0.2 - Partly cloudy 10 - - - -
30/02:00pm 22.2 SSW 8 10 1014.4 - 0.0 - Partly cloudy 10 - - - -
30/01:30pm 21.2 SW 5 8 1014.8 - 0.0 - Partly cloudy 10 - - - -
30/01:00pm 21.0 SSW 6 10 1015.5 - 0.0 - Partly cloudy 10 - - - -
30/12:30pm 19.5 SW 7 10 1016.0 - 0.0 - Partly cloudy 10 - - - -
30/12:00pm 18.8 SW 6 9 1016.5 - 0.0 - Cloudy 10 - - - -
30/11:30am 18.9 SSW 8 12 1016.9 - 0.0 - Partly cloudy 10 - - - -
30/11:00am 18.7 SW 7 12 1017.3 - 0.0 - - 10 - - - -
30/10:30am 17.9 SW 8 11 1017.5 - 0.0 - Partly cloudy 10 - - - -
30/10:15am 17.8 SW 7 9 1017.7 - 0.0 - Partly cloudy 10 - - - -
30/10:00am 17.3 SW 7 10 1018.0 - 0.0 - Partly cloudy 10 - - - -
30/09:40am 17.2 SW 8 10 1018.1 - 0.0 - Partly cloudy 10 - - - -
30/09:38am 17.1 SW 8 10 1018.2 - 0.0 - Partly cloudy 10 - - - -
30/09:30am 17.0 SW 7 9 1018.2 - 0.0 - Partly cloudy 10 - - - -
30/09:18am 16.7 SW 7 11 1018.5 - 0.0 - Partly cloudy 10 - - - -
30/09:08am 16.6 SW 6 10 1018.5 - 0.0 - Partly cloudy 10 - - - -
30/09:00am 16.6 WSW 7 11 1018.6 - 7.4 - Cloudy 10 - - - -
30/08:30am 16.4 WSW 7 11 1018.3 - 7.4 - Cloudy 10 - - - -
30/08:00am 16.1 WSW 7 10 1018.1 - 7.4 - Cloudy 10 - - - -
30/07:30am 16.0 SW 5 8 1017.4 - 7.4 - Partly cloudy 10 - - - -
30/07:29am 16.1 SW 5 8 1017.4 - 7.4 - Partly cloudy 10 - - - -
30/07:00am 15.8 SW 3 4 1017.3 - 7.4 - Partly cloudy 10 - - - -
30/06:30am 15.7 W 4 5 1017.2 - 7.4 - Partly cloudy 10 - - - -
30/06:00am 15.8 WSW 5 8 1017.0 - 7.4 Rain Cloudy 10 - - - -
30/05:30am 15.9 W 3 4 1016.4 - 7.2 - Partly cloudy 10 - - - -
30/05:00am 15.9 NW 3 5 1016.4 - 7.2 - Partly cloudy 10 - - - -
30/04:30am 16.0 NNW 1 3 1016.1 - 6.8 - Partly cloudy 10 - - - -
30/04:00am 16.0 CALM 0 1 1016.5 - 6.2 - Partly cloudy 10 - - - -
30/03:30am 15.9 SW 5 6 1017.0 - 6.0 - Partly cloudy 10 - - - -
30/03:00am 16.1 SW 3 4 1017.4 - 5.8 Recent precip. Cloudy 10 - - - -
30/02:30am 16.1 SW 1 3 1017.8 - 5.6 - Partly cloudy 10 - - - -
30/02:00am 16.2 NE 2 4 1018.0 - 5.6 - Partly cloudy 10 - - - -
30/01:46am 16.2 NNE 2 4 1018.0 - 5.2 - Partly cloudy 10 - - - -
30/01:30am 16.2 CALM 0 2 1018.3 - 5.0 - Partly cloudy 4 - - - -
30/01:25am 16.2 NNW 1 4 1018.5 - 4.6 - Partly cloudy 5 - - - -
30/01:00am 16.1 S 3 6 1018.6 - 3.6 - Partly cloudy 10 - - - -
30/12:30am 16.3 S 5 7 1019.0 - 3.6 - Partly cloudy 10 - - - -
30/12:00am 16.3 SSW 7 11 1019.3 - 3.6 Recent precip. Cloudy 10 - - - -
 
Date/Time
EST
Temp

°C
Wind Pressure Rain
since 9am
mm
Weather Cloud Vis
km
Sea
Height
m
Swell
Dir
 
Speed
knots
Gust
knots
hPa Trend Height
m
Period
s
Dir
29/11:30pm 16.4 SSW 7 11 1019.7 - 3.4 - Cloudy 10 - - - -
29/11:00pm 16.8 SSW 5 7 1019.7 - 3.4 - Partly cloudy 6 - - - -
29/10:49pm 17.0 SW 6 8 1019.7 - 2.8 - Cloudy 10 - - - -
29/10:33pm 17.0 S 4 5 1019.5 - 2.6 - Cloudy 5 - - - -
29/10:30pm 17.0 S 4 6 1019.5 - 2.2 - Cloudy 9 - - - -
29/10:00pm 17.0 SSW 6 10 1019.5 - 1.6 - Cloudy 10 - - - -
29/09:30pm 17.0 SW 7 10 1019.3 - 1.6 - Cloudy 10 - - - -
29/09:00pm 17.1 SW 8 12 1019.5 - 1.4 Recent precip. Cloudy 10 - - - -
29/08:30pm 17.3 SW 11 15 1019.5 - 0.6 - Partly cloudy 8 - - - -

Other Formats:

Comma delimited format used in spreadsheet applications
http://www.bom.gov.au/fwo/IDQ60701/IDQ60701.95565.axf

JavaScript Object Notation format (JSON) in row-major order
http://www.bom.gov.au/fwo/IDQ60701/IDQ60701.95565.json